Seattle, WA

4:07 AM PDT on August 28, 2014 (GMT -0700)
NOS_NWLON Seattle, Puget Sound, WA, WA NWLON | Change Station
CLOSE
Current Station
Personal Weather Station
Location: Seattle, WA
Elevation: 0 ft
Nearby Weather Stations

Elev 0 ft 47.60 °N, 122.34 °W | Updated 1 hour ago

Clear
Clear
61.0 °F
Feels Like 61.0 °F
N
5.0
Wind Variable Wind from NW
Gusts 6.0 mph

Today
High -- | Low -- °F
--% Chance of Precip.
Yesterday
High -- | Low -- °F
Precip. -- in
6:22 AM 7:57 PM
Waxing Crescent, 7% visible
Pressure 30.07 in
Visibility 10.0 miles
Clouds Clear
Dew Point Not available.
Humidity Not available.
Rainfall -9999.00 in
Snow Depth Not available.
UV 0 out of 12
Pollen 3.80 out of 12
Air Quality Not available.
Flu Activity Not available.
METAR KBFI 281053Z 19003KT 10SM CLR 17/13 A3007 RMK AO2 SLP181 T01720128

More Conditions Fewer Conditions

Pressure 30.07 in
Visibility 10.0 miles
Clouds Clear
Dew Point Not available.
Humidity Not available.
Rainfall -9999.00 in
Snow Depth Not available.
UV 0 out of 12
Pollen 3.80 out of 12
Air Quality Not available.
Flu Activity Not available.
METAR KBFI 281053Z 19003KT 10SM CLR 17/13 A3007 RMK AO2 SLP181 T01720128

More Conditions Fewer Conditions

10-Day Weather Forecast

Almanac

Astronomy

Aug. 28, 2014 Rise Set
Actual Time 6:22 AM PDT 7:57 PM PDT
Civil Twilight 5:50 AM PDT 8:29 PM PDT
Nautical Twilight 5:10 AM PDT 9:08 PM PDT
Astronomical Twilight 4:28 AM PDT 9:51 PM PDT
Moon 9:35 AM PDT 9:07 PM PDT
Length of Visible Light 14h 39m
Length of Day
13h 34m
Tomorrow will be 3m 16s shorter.
Waxing Crescent, 7% of the Moon is Illuminated
Today
Waxing Crescent
Sep 2
First Quarter
Sep 8
Full
Sep 15
Last Quarter
Sep 24
New

Today's Extremes

State Highs State Lows

Community

WunderPhotos

Upload Photos

1,747,923 photos uploaded!

Nearby

Air Quality

  Air Quality AQ Index Pollutant
Thursday Good
OZONE
Thursday Good
PM2.5
Friday Good
OZONE
Friday Good
PM2.5
Saturday Good
OZONE
Saturday Good
PM2.5

Snow Depth

Station Depth Elevation
Alpine Meadows 0 in 3500 ft
Mount Crag 0 in 4050 ft
Dungeness 0 in 4100 ft
Mount Gardner 0 in 3000 ft
Olallie Meadows 3 in 3700 ft

Earthquake Activity

City Distance Mag. Time & Date
No recent earthquake activity has been reported nearby.
Minimum magnitude displayed is 2.5.

Coastal Water Temperatures

Place Temperature
Port Townsend, WA 52.0 °F
Seattle, WA 57.0 °F
Friday Harbor, WA 53.1 °F
Tacoma, WA 55.0 °F

Nearby Weather Stations